Time;durP1;ratioP1;P1;durP2;ratioP2;P2;SDS_P1;SDS_P2;PMS_P1;PMS_P2;Temp;Humidity;BMP_temperature;BMP_pressure;BME280_temperature;BME280_humidity;BME280_pressure;Samples;Min_cycle;Max_cycle;Signal;HPM_P1;HPM_P2
2021/03/17 00:02:02;;;;;;;9.60;4.70;;;;;;;5.34;98.15;100881.89;643378;221;26171;-77
2021/03/17 00:04:30;;;;;;;9.93;5.50;;;;;;;5.52;96.57;100885.55;643940;221;32989;-77
2021/03/17 00:06:58;;;;;;;9.65;5.62;;;;;;;5.78;95.73;100879.58;635224;221;32763;-77
2021/03/17 00:09:26;;;;;;;4.97;3.43;;;;;;;5.53;97.01;100880.77;639678;222;23754;-78
2021/03/17 00:11:54;;;;;;;3.77;3.07;;;;;;;5.29;97.58;100881.36;639548;222;24901;-77
2021/03/17 00:14:22;;;;;;;4.20;3.70;;;;;;;5.25;98.03;100879.89;644300;221;24871;-77
2021/03/17 00:16:50;;;;;;;3.50;3.20;;;;;;;5.44;97.73;100876.16;638620;222;28118;-77
2021/03/17 00:19:17;;;;;;;4.90;3.43;;;;;;;5.27;97.57;100872.89;643432;219;24874;-77
2021/03/17 00:21:45;;;;;;;3.80;3.40;;;;;;;5.30;97.63;100878.31;648754;220;24903;-77
2021/03/17 00:24:14;;;;;;;5.77;3.93;;;;;;;5.38;97.36;100874.81;637330;221;24928;-77
2021/03/17 00:26:41;;;;;;;3.70;3.40;;;;;;;5.21;97.73;100873.74;638640;222;24867;-77
2021/03/17 00:29:10;;;;;;;4.10;3.70;;;;;;;5.04;98.97;100882.48;655518;217;24849;-77
2021/03/17 00:31:38;;;;;;;4.93;3.57;;;;;;;5.10;99.25;100882.13;647385;219;24943;-77
2021/03/17 00:34:05;;;;;;;5.40;3.80;;;;;;;5.15;99.53;100883.95;654951;217;24864;-77
2021/03/17 00:36:33;;;;;;;6.10;4.10;;;;;;;5.13;99.12;100878.06;642731;221;24874;-77
2021/03/17 00:39:01;;;;;;;4.90;4.40;;;;;;;4.82;100.00;100873.95;645220;218;24826;-77
2021/03/17 00:41:29;;;;;;;5.43;3.90;;;;;;;4.83;100.00;100878.64;651357;217;24846;-77
2021/03/17 00:43:57;;;;;;;7.20;4.90;;;;;;;4.72;100.00;100876.23;647495;220;24961;-77
2021/03/17 00:46:25;;;;;;;4.60;3.97;;;;;;;4.70;100.00;100874.22;643880;221;24934;-76
2021/03/17 00:48:53;;;;;;;5.90;5.20;;;;;;;4.79;100.00;100876.72;637252;221;24892;-76
2021/03/17 00:51:20;;;;;;;5.27;4.30;;;;;;;4.77;100.00;100870.34;650200;217;24818;-76
2021/03/17 00:53:48;;;;;;;6.73;4.83;;;;;;;4.98;100.00;100863.53;643351;221;24866;-77
2021/03/17 00:56:16;;;;;;;6.33;4.57;;;;;;;5.16;100.00;100863.69;641327;222;25016;-77
2021/03/17 00:58:44;;;;;;;4.80;4.17;;;;;;;5.27;100.00;100863.86;641122;222;24943;-77
2021/03/17 01:01:12;;;;;;;5.13;4.20;;;;;;;5.15;100.00;100859.92;638127;222;24865;-77
2021/03/17 01:03:40;;;;;;;6.47;4.80;;;;;;;5.28;99.74;100853.09;635425;222;26041;-77
2021/03/17 01:06:07;;;;;;;6.10;4.23;;;;;;;5.23;99.83;100845.65;651557;217;24877;-77
2021/03/17 01:08:35;;;;;;;5.87;4.60;;;;;;;5.29;99.58;100852.98;652457;218;24824;-77
2021/03/17 01:11:04;;;;;;;7.03;4.23;;;;;;;5.23;99.37;100846.94;646254;221;24862;-77
2021/03/17 01:13:31;;;;;;;3.97;3.57;;;;;;;5.14;99.96;100842.34;648866;221;24880;-77
2021/03/17 01:15:59;;;;;;;5.53;4.67;;;;;;;5.24;98.96;100840.85;636655;222;32825;-77
2021/03/17 01:18:27;;;;;;;5.00;4.50;;;;;;;4.94;100.00;100853.05;648161;221;23794;-77
2021/03/17 01:20:55;;;;;;;5.20;4.10;;;;;;;5.03;100.00;100847.32;641690;221;24874;-77
2021/03/17 01:23:23;;;;;;;8.17;3.83;;;;;;;5.06;99.71;100845.84;647135;217;28034;-77
2021/03/17 01:25:51;;;;;;;5.10;4.10;;;;;;;5.12;100.00;100840.32;646515;222;24893;-77
2021/03/17 01:28:19;;;;;;;3.87;3.47;;;;;;;5.14;100.00;100839.76;636408;222;26254;-76
2021/03/17 01:30:46;;;;;;;3.43;3.13;;;;;;;4.86;100.00;100836.75;636393;221;24881;-77
2021/03/17 01:33:14;;;;;;;3.90;3.50;;;;;;;5.11;100.00;100842.53;646164;220;24882;-77
2021/03/17 01:35:42;;;;;;;4.23;3.80;;;;;;;5.03;100.00;100836.55;642291;221;25373;-77
2021/03/17 01:38:10;;;;;;;3.90;3.50;;;;;;;4.94;100.00;100838.42;654859;217;25100;-76
2021/03/17 01:40:38;;;;;;;4.25;3.80;;;;;;;5.19;100.00;100837.71;645919;217;32544;-76
2021/03/17 01:43:06;;;;;;;3.80;3.50;;;;;;;4.93;100.00;100841.09;639117;221;23785;-77
2021/03/17 01:45:34;;;;;;;4.80;3.40;;;;;;;5.00;100.00;100838.49;644417;221;24868;-78
2021/03/17 01:48:02;;;;;;;3.33;3.03;;;;;;;4.97;99.95;100838.69;645366;221;24880;-78
2021/03/17 01:50:29;;;;;;;6.03;3.50;;;;;;;5.06;99.97;100835.52;640564;220;24873;-77
2021/03/17 01:52:57;;;;;;;3.57;3.17;;;;;;;4.82;100.00;100833.17;653865;217;24854;-78
2021/03/17 01:55:25;;;;;;;3.70;3.30;;;;;;;4.63;100.00;100841.98;655946;218;24876;-76
2021/03/17 01:57:53;;;;;;;4.40;3.70;;;;;;;4.37;100.00;100837.58;644829;221;24889;-77
2021/03/17 02:00:22;;;;;;;5.63;3.97;;;;;;;4.40;100.00;100839.97;638610;222;24886;-78
2021/03/17 02:02:50;;;;;;;3.70;3.40;;;;;;;4.37;100.00;100842.73;646574;219;28024;-77
2021/03/17 02:05:17;;;;;;;4.30;3.90;;;;;;;4.57;100.00;100844.95;654202;218;24841;-77
2021/03/17 02:07:45;;;;;;;3.50;3.23;;;;;;;4.63;100.00;100844.56;642076;221;24889;-76
2021/03/17 02:10:14;;;;;;;4.10;3.80;;;;;;;4.73;100.00;100847.44;641038;222;27035;-76
2021/03/17 02:12:45;;;;;;;3.90;3.50;;;;;;;4.85;100.00;100842.00;646240;222;28093;-77
2021/03/17 02:15:15;;;;;;;3.40;3.10;;;;;;;4.89;100.00;100847.33;653059;219;24969;-76
2021/03/17 02:17:43;;;;;;;5.83;3.43;;;;;;;4.81;100.00;100841.38;645847;222;25940;-77
2021/03/17 02:20:23;;;;;;;3.70;3.30;;;;;;;5.10;100.00;100838.77;642215;217;32487;-77
2021/03/17 02:22:51;;;;;;;3.87;3.47;;;;;;;5.04;100.00;100838.20;651816;218;23727;-77
2021/03/17 02:25:37;;;;;;;2.73;2.53;;;;;;;5.09;99.17;100836.65;648524;217;24830;-77
2021/03/17 02:28:09;;;;;;;3.43;3.13;;;;;;;4.86;99.39;100839.80;645771;219;24868;-77
2021/03/17 02:30:48;;;;;;;3.20;2.90;;;;;;;4.94;99.90;100842.28;640463;222;24872;-77
2021/03/17 02:33:29;;;;;;;3.50;3.20;;;;;;;4.95;99.88;100843.11;644641;219;24832;-75
2021/03/17 02:35:59;;;;;;;3.13;2.83;;;;;;;5.01;98.91;100840.14;647083;218;24838;-77
2021/03/17 02:38:27;;;;;;;3.03;2.73;;;;;;;4.89;99.50;100835.27;651156;218;24844;-76
2021/03/17 02:40:55;;;;;;;2.90;2.70;;;;;;;5.00;99.60;100832.88;645037;222;24882;-77
2021/03/17 02:43:23;;;;;;;3.10;2.90;;;;;;;4.89;99.36;100830.58;640801;221;24862;-76
2021/03/17 02:45:51;;;;;;;3.23;2.93;;;;;;;4.81;99.32;100841.38;659701;217;24856;-76
2021/03/17 02:48:21;;;;;;;2.77;2.53;;;;;;;4.83;99.81;100840.81;650316;217;24851;-77
2021/03/17 02:50:47;;;;;;;3.43;2.80;;;;;;;4.91;99.61;100838.58;659115;217;25000;-76
2021/03/17 02:53:15;;;;;;;3.17;2.87;;;;;;;4.80;100.00;100837.60;650355;218;26039;-76
2021/03/17 02:55:44;;;;;;;3.15;2.85;;;;;;;5.07;99.28;100837.20;645364;217;32536;-76
2021/03/17 02:58:12;;;;;;;2.50;2.30;;;;;;;4.98;98.59;100828.28;637717;221;23782;-76
2021/03/17 03:00:40;;;;;;;3.67;3.30;;;;;;;4.92;99.23;100834.25;652593;217;24859;-76
2021/03/17 03:03:08;;;;;;;2.77;2.43;;;;;;;4.97;99.39;100830.49;644520;218;29087;-75
2021/03/17 03:05:36;;;;;;;2.83;2.37;;;;;;;5.00;98.57;100830.30;651722;217;24908;-75
2021/03/17 03:08:04;;;;;;;3.20;2.70;;;;;;;5.02;98.08;100825.05;652835;217;28030;-76
2021/03/17 03:10:32;;;;;;;2.97;2.40;;;;;;;4.87;99.07;100829.39;639314;221;24919;-76
2021/03/17 03:13:00;;;;;;;2.73;2.37;;;;;;;4.85;99.07;100833.81;642191;221;24886;-76
2021/03/17 03:15:27;;;;;;;2.67;2.47;;;;;;;5.05;98.38;100836.45;646352;219;24843;-77
2021/03/17 03:17:56;;;;;;;4.27;2.20;;;;;;;4.92;98.72;100836.83;642116;222;24946;-76
2021/03/17 03:20:24;;;;;;;2.73;2.33;;;;;;;4.91;99.31;100838.58;640929;222;24880;-76
2021/03/17 03:22:52;;;;;;;2.60;2.20;;;;;;;4.94;99.14;100836.30;643651;222;24866;-76
2021/03/17 03:25:20;;;;;;;3.27;1.93;;;;;;;5.02;98.32;100832.78;648459;221;24901;-76
2021/03/17 03:27:48;;;;;;;2.20;2.00;;;;;;;5.01;98.69;100838.86;652829;218;24859;-76
2021/03/17 03:30:17;;;;;;;2.87;2.23;;;;;;;4.96;98.43;100835.28;652672;218;24845;-76
2021/03/17 03:32:45;;;;;;;2.03;1.93;;;;;;;4.87;98.72;100844.02;635466;222;24881;-76
2021/03/17 03:35:13;;;;;;;2.30;2.10;;;;;;;4.91;98.42;100838.58;635921;221;24915;-76
2021/03/17 03:37:41;;;;;;;2.50;2.30;;;;;;;4.91;99.19;100841.16;642310;222;25426;-76
2021/03/17 03:40:11;;;;;;;2.60;2.40;;;;;;;5.32;97.05;100832.16;638971;220;32684;-77
2021/03/17 03:42:38;;;;;;;3.10;2.80;;;;;;;4.93;98.32;100845.78;652282;217;23747;-76
2021/03/17 03:45:07;;;;;;;2.60;2.40;;;;;;;4.80;98.98;100853.89;638323;222;24918;-76
2021/03/17 03:47:35;;;;;;;2.40;2.13;;;;;;;4.85;98.54;100857.47;643721;221;24870;-76
2021/03/17 03:50:03;;;;;;;2.00;1.90;;;;;;;4.90;99.31;100863.98;638513;221;24904;-76
2021/03/17 03:52:31;;;;;;;2.60;2.40;;;;;;;5.26;97.05;100853.19;640025;221;32675;-77
2021/03/17 03:55:00;;;;;;;2.67;2.47;;;;;;;4.97;97.84;100865.29;646152;221;27995;-77
2021/03/17 03:57:29;;;;;;;2.73;2.53;;;;;;;4.71;99.34;100861.70;641389;221;24925;-76
2021/03/17 03:59:57;;;;;;;3.10;2.80;;;;;;;4.72;100.00;100871.08;640228;219;32501;-76
2021/03/17 04:02:25;;;;;;;3.50;3.20;;;;;;;4.40;100.00;100872.98;647541;217;23741;-77
2021/03/17 04:04:53;;;;;;;3.37;3.07;;;;;;;4.30;100.00;100875.72;643116;221;24903;-76
2021/03/17 04:07:21;;;;;;;3.93;3.03;;;;;;;4.43;100.00;100871.97;649989;218;24850;-75
2021/03/17 04:09:49;;;;;;;3.40;2.90;;;;;;;4.59;100.00;100870.15;651415;217;25139;-75
2021/03/17 04:12:17;;;;;;;3.45;3.15;;;;;;;4.87;100.00;100868.05;640706;220;32728;-75
2021/03/17 04:14:45;;;;;;;3.40;3.10;;;;;;;4.76;100.00;100866.10;636552;221;23815;-75
2021/03/17 04:17:13;;;;;;;2.70;2.50;;;;;;;4.85;100.00;100867.77;648186;217;24839;-76
2021/03/17 04:19:41;;;;;;;3.43;3.13;;;;;;;4.88;99.93;100866.30;653360;217;24828;-77
2021/03/17 04:22:09;;;;;;;3.10;2.80;;;;;;;5.42;98.15;100864.66;639549;221;32682;-76
2021/03/17 04:24:37;;;;;;;2.57;2.37;;;;;;;5.23;98.64;100867.56;633518;225;23804;-76
2021/03/17 04:27:05;;;;;;;2.77;2.40;;;;;;;4.90;98.94;100868.31;640725;222;24883;-77
2021/03/17 04:29:33;;;;;;;2.47;2.27;;;;;;;5.13;98.43;100874.20;653650;218;24934;-76
2021/03/17 04:32:01;;;;;;;3.70;2.70;;;;;;;5.64;97.34;100868.02;646208;219;32599;-75
2021/03/17 04:34:29;;;;;;;3.00;2.80;;;;;;;5.29;98.03;100874.08;652584;219;24170;-76
2021/03/17 04:36:57;;;;;;;3.03;2.50;;;;;;;5.29;97.60;100865.88;637677;222;24903;-76
2021/03/17 04:39:25;;;;;;;3.30;2.90;;;;;;;5.20;98.00;100875.47;656590;217;25436;-76
2021/03/17 04:41:54;;;;;;;2.67;2.47;;;;;;;4.84;98.71;100879.00;646584;221;24921;-77
2021/03/17 04:44:22;;;;;;;4.07;2.77;;;;;;;4.81;100.00;100884.34;638776;222;24929;-76
2021/03/17 04:46:50;;;;;;;3.00;2.70;;;;;;;4.67;100.00;100893.72;652179;217;24821;-76
2021/03/17 04:49:19;;;;;;;2.97;2.77;;;;;;;4.91;100.00;100891.41;656060;217;24880;-75
2021/03/17 04:51:47;;;;;;;3.65;3.33;;;;;;;5.39;97.85;100888.53;646447;213;32568;-76
2021/03/17 04:54:15;;;;;;;3.20;2.90;;;;;;;5.11;98.91;100897.13;656396;217;23743;-77
2021/03/17 04:56:43;;;;;;;4.13;3.47;;;;;;;5.07;99.04;100900.37;652680;217;25930;-76
2021/03/17 04:59:12;;;;;;;3.60;3.30;;;;;;;5.38;96.96;100899.31;647285;217;32528;-77
2021/03/17 05:01:40;;;;;;;3.40;3.10;;;;;;;5.12;98.85;100907.81;652368;217;23749;-76
2021/03/17 05:04:08;;;;;;;3.00;2.80;;;;;;;5.12;98.94;100906.06;653906;217;24854;-76
2021/03/17 05:06:35;;;;;;;3.00;2.70;;;;;;;5.09;98.79;100902.39;657002;215;24816;-76
2021/03/17 05:09:03;;;;;;;3.90;2.83;;;;;;;5.19;98.80;100900.05;655761;217;24860;-76
2021/03/17 05:11:31;;;;;;;4.20;3.50;;;;;;;5.67;96.43;100897.49;645411;217;32547;-76
2021/03/17 05:14:00;;;;;;;3.30;3.00;;;;;;;5.34;96.94;100905.56;653195;217;23784;-76
2021/03/17 05:16:28;;;;;;;2.80;2.60;;;;;;;5.17;97.67;100907.89;654487;217;29131;-76
2021/03/17 05:18:56;;;;;;;2.97;2.67;;;;;;;5.12;98.45;100907.34;655772;217;24808;-77
2021/03/17 05:21:24;;;;;;;2.53;2.33;;;;;;;5.14;98.58;100908.08;652452;217;24832;-76
2021/03/17 05:23:51;;;;;;;3.13;2.77;;;;;;;5.08;98.97;100905.89;656661;217;24846;-76
2021/03/17 05:26:19;;;;;;;4.00;3.37;;;;;;;5.16;99.36;100909.27;658184;217;24829;-78
2021/03/17 05:28:47;;;;;;;3.77;3.33;;;;;;;5.12;99.41;100907.81;656068;217;24860;-75
2021/03/17 05:31:15;;;;;;;5.73;4.63;;;;;;;5.05;99.35;100906.88;655549;217;24873;-75
2021/03/17 05:33:43;;;;;;;8.10;6.42;;;;;;;5.56;98.09;100904.61;652323;217;32541;-75
2021/03/17 05:36:12;;;;;;;10.37;7.50;;;;;;;5.19;99.58;100907.79;654681;217;23738;-75
2021/03/17 05:38:40;;;;;;;10.48;8.70;;;;;;;5.45;98.69;100908.31;647602;217;32543;-75
2021/03/17 05:41:07;;;;;;;12.70;8.50;;;;;;;5.14;99.51;100908.08;650329;217;25010;-75
2021/03/17 05:43:35;;;;;;;12.57;8.90;;;;;;;4.97;100.00;100909.56;650675;217;24894;-75
2021/03/17 05:46:05;;;;;;;13.97;9.63;;;;;;;4.90;100.00;100915.53;657416;217;24854;-77
2021/03/17 05:48:33;;;;;;;12.50;9.57;;;;;;;4.88;100.00;100913.51;657031;217;24962;-75
2021/03/17 05:51:01;;;;;;;14.53;10.20;;;;;;;4.83;100.00;100919.87;651811;217;24875;-75
2021/03/17 05:53:29;;;;;;;12.60;9.57;;;;;;;4.75;100.00;100923.71;654465;217;24855;-76
2021/03/17 05:55:59;;;;;;;14.90;10.97;;;;;;;4.81;100.00;100926.87;648878;217;27052;-75
2021/03/17 05:58:26;;;;;;;16.20;11.10;;;;;;;4.80;100.00;100925.20;655800;217;26004;-75
2021/03/17 06:00:54;;;;;;;17.90;10.93;;;;;;;4.74;100.00;100925.92;648554;217;30419;-75
2021/03/17 06:03:22;;;;;;;22.33;12.03;;;;;;;4.76;100.00;100930.52;648454;217;24861;-76
2021/03/17 06:05:50;;;;;;;18.70;11.10;;;;;;;4.67;100.00;100932.37;651826;217;24873;-75
2021/03/17 06:08:19;;;;;;;19.00;12.20;;;;;;;4.61;100.00;100940.89;655715;217;24843;-74
2021/03/17 06:10:47;;;;;;;19.00;10.77;;;;;;;4.61;100.00;100941.72;655798;217;24884;-76
2021/03/17 06:13:15;;;;;;;19.90;11.40;;;;;;;4.59;100.00;100933.27;653395;217;24859;-75
2021/03/17 06:15:43;;;;;;;21.60;12.70;;;;;;;4.48;100.00;100938.20;653872;217;24887;-75
2021/03/17 06:18:13;;;;;;;18.37;11.87;;;;;;;4.54;100.00;100946.88;654366;215;24864;-75
2021/03/17 06:20:43;;;;;;;19.60;12.50;;;;;;;4.43;100.00;100951.80;651299;217;24985;-75
2021/03/17 06:23:11;;;;;;;21.13;11.17;;;;;;;4.50;100.00;100952.27;651597;217;24860;-75
2021/03/17 06:25:38;;;;;;;20.80;13.23;;;;;;;4.52;100.00;100952.58;660344;217;27047;-75
2021/03/17 06:28:06;;;;;;;20.10;11.83;;;;;;;4.44;100.00;100950.89;654708;217;24870;-75
2021/03/17 06:30:35;;;;;;;18.30;11.87;;;;;;;4.49;100.00;100955.30;659041;217;24952;-75
2021/03/17 06:33:03;;;;;;;19.67;11.87;;;;;;;4.55;100.00;100960.13;656999;217;25931;-75
2021/03/17 06:35:30;;;;;;;19.73;11.70;;;;;;;4.51;100.00;100962.97;652411;217;24927;-75
2021/03/17 06:37:59;;;;;;;20.77;12.57;;;;;;;4.53;100.00;100969.69;654643;217;24872;-75
2021/03/17 06:40:27;;;;;;;21.53;12.97;;;;;;;4.51;100.00;100977.97;656127;217;24898;-75
2021/03/17 06:42:55;;;;;;;20.20;11.70;;;;;;;4.46;100.00;100982.53;654553;217;24909;-75
2021/03/17 06:45:30;;;;;;;21.80;14.90;;;;;;;4.50;100.00;100985.29;650593;217;32611;-74
2021/03/17 06:47:58;;;;;;;22.87;16.25;;;;;;;4.62;100.00;100991.03;647194;217;32893;-75
2021/03/17 06:50:30;;;;;;;24.82;16.23;;;;;;;4.68;100.00;100988.59;645289;217;32585;-76
2021/03/17 06:52:59;;;;;;;21.60;13.63;;;;;;;4.56;100.00;100990.57;659031;217;23725;-74
2021/03/17 06:55:27;;;;;;;20.57;13.20;;;;;;;4.55;100.00;100991.03;648361;217;24879;-75
2021/03/17 06:57:54;;;;;;;25.70;16.50;;;;;;;4.58;100.00;100986.16;646884;217;32668;-76
2021/03/17 07:00:30;;;;;;;24.30;13.37;;;;;;;4.50;100.00;100981.43;648538;217;25877;-75
2021/03/17 07:02:59;;;;;;;21.60;12.33;;;;;;;4.37;100.00;100980.49;655424;217;25903;-77
2021/03/17 07:05:33;;;;;;;22.70;13.67;;;;;;;4.31;100.00;100980.36;654001;217;24871;-75
2021/03/17 07:08:01;;;;;;;19.90;12.37;;;;;;;4.41;100.00;100978.11;656823;217;24851;-76
2021/03/17 07:10:30;;;;;;;19.43;12.20;;;;;;;4.39;100.00;100978.66;655776;217;24831;-75
2021/03/17 07:12:58;;;;;;;17.97;11.40;;;;;;;4.75;100.00;100978.28;658627;217;24854;-74
2021/03/17 07:15:26;;;;;;;17.77;11.83;;;;;;;5.16;99.92;100971.98;652468;217;32642;-75
2021/03/17 07:17:55;;;;;;;19.60;11.70;;;;;;;5.20;99.47;100969.58;655865;217;23727;-75
2021/03/17 07:20:42;;;;;;;23.10;12.63;;;;;;;5.03;100.00;100980.07;649252;217;25085;-75
2021/03/17 07:23:22;;;;;;;18.37;11.20;;;;;;;5.24;99.86;100978.81;656549;217;24878;-75
2021/03/17 07:26:01;;;;;;;15.73;9.93;;;;;;;4.93;100.00;100984.96;650724;217;24869;-75
2021/03/17 07:28:29;;;;;;;14.40;9.90;;;;;;;5.11;100.00;100990.77;654642;215;26991;-75
2021/03/17 07:30:56;;;;;;;14.23;9.87;;;;;;;5.16;99.71;100986.16;651717;217;24883;-76
2021/03/17 07:33:24;;;;;;;15.97;9.90;;;;;;;5.11;99.93;100992.06;657782;217;26942;-74
2021/03/17 07:35:52;;;;;;;13.77;8.93;;;;;;;5.10;99.41;100997.31;657938;217;24841;-75
2021/03/17 07:38:20;;;;;;;15.13;9.40;;;;;;;5.08;99.66;101003.02;656053;217;24866;-75
2021/03/17 07:40:48;;;;;;;14.23;9.37;;;;;;;5.19;100.00;101000.61;651002;217;24889;-75
2021/03/17 07:43:16;;;;;;;12.33;8.73;;;;;;;5.33;98.59;101000.16;659003;217;24907;-75
2021/03/17 07:45:44;;;;;;;15.20;9.50;;;;;;;5.37;99.03;101008.56;655291;217;24849;-75
2021/03/17 07:48:12;;;;;;;12.23;8.30;;;;;;;5.43;97.60;101003.48;661442;217;24851;-75
2021/03/17 07:50:40;;;;;;;14.37;8.13;;;;;;;5.60;96.11;101005.86;651337;217;24844;-75
2021/03/17 07:53:08;;;;;;;14.80;8.53;;;;;;;5.63;95.11;100996.64;648724;217;24888;-75
2021/03/17 07:55:36;;;;;;;13.90;10.05;;;;;;;6.07;92.45;100984.89;648349;217;32708;-74
2021/03/17 07:58:03;;;;;;;17.37;11.00;;;;;;;6.27;92.30;100979.73;641562;221;24025;-75
2021/03/17 08:00:31;;;;;;;18.10;11.00;;;;;;;6.21;92.63;100982.72;654899;217;28016;-74
2021/03/17 08:02:59;;;;;;;18.80;11.00;;;;;;;6.53;93.18;100977.59;643412;221;24969;-75
2021/03/17 08:05:27;;;;;;;16.67;10.50;;;;;;;6.71;91.51;100966.49;641867;221;24953;-75
2021/03/17 08:07:55;;;;;;;17.80;11.95;;;;;;;6.80;89.77;100961.19;639398;221;32767;-76
2021/03/17 08:10:23;;;;;;;18.13;10.30;;;;;;;6.51;89.08;100966.53;637817;221;23764;-75
2021/03/17 08:12:50;;;;;;;13.23;9.03;;;;;;;6.35;89.58;100967.62;644578;221;24890;-75
2021/03/17 08:15:18;;;;;;;9.20;7.57;;;;;;;6.29;89.25;100967.55;647001;217;24833;-75
2021/03/17 08:17:46;;;;;;;15.77;7.83;;;;;;;6.14;89.26;100960.78;653755;217;28019;-75
2021/03/17 08:20:16;;;;;;;11.83;7.10;;;;;;;6.62;89.55;100954.66;653987;218;24864;-75
2021/03/17 08:22:44;;;;;;;11.43;7.10;;;;;;;6.62;87.87;100949.50;648837;218;26997;-74
2021/03/17 08:25:12;;;;;;;12.27;7.77;;;;;;;6.74;87.54;100939.14;653632;217;24903;-76
2021/03/17 08:27:39;;;;;;;12.00;6.90;;;;;;;6.91;86.44;100938.50;647696;222;24922;-76
2021/03/17 08:30:10;;;;;;;10.10;7.30;;;;;;;7.09;86.14;100939.83;648241;221;24958;-76
2021/03/17 08:32:48;;;;;;;10.50;7.93;;;;;;;7.02;87.11;100949.75;643918;222;24927;-75
2021/03/17 08:35:16;;;;;;;11.77;6.63;;;;;;;7.18;86.68;100955.16;640062;222;24892;-75
2021/03/17 08:37:50;;;;;;;12.67;7.10;;;;;;;7.47;85.89;100961.77;652511;217;25043;-75
2021/03/17 08:40:45;;;;;;;11.18;7.50;;;;;;;7.52;83.59;100940.27;654280;216;32549;-74
2021/03/17 08:43:37;;;;;;;10.07;6.70;;;;;;;7.49;84.75;100952.14;662790;216;23733;-75
2021/03/17 08:46:06;;;;;;;14.10;6.60;;;;;;;7.54;85.08;100957.81;647490;217;24869;-74
2021/03/17 08:48:45;;;;;;;9.17;6.00;;;;;;;7.40;84.63;100956.18;657820;217;24851;-75
2021/03/17 08:51:13;;;;;;;9.53;6.47;;;;;;;7.71;83.58;100951.44;654275;217;24839;-75
2021/03/17 08:53:41;;;;;;;11.10;6.67;;;;;;;7.62;82.66;100946.93;654962;217;24834;-74
2021/03/17 08:56:09;;;;;;;11.97;6.67;;;;;;;7.39;85.02;100951.94;656467;217;25944;-75
2021/03/17 08:58:36;;;;;;;11.73;6.90;;;;;;;7.45;83.92;100951.97;651770;217;24966;-75
2021/03/17 09:01:04;;;;;;;10.70;7.10;;;;;;;8.08;80.38;100935.41;649513;217;32531;-76
2021/03/17 09:03:51;;;;;;;12.37;7.10;;;;;;;7.94;80.55;100940.28;659859;217;24869;-75
2021/03/17 09:06:24;;;;;;;11.20;7.30;;;;;;;7.44;80.30;100938.67;651518;217;24837;-75
2021/03/17 09:08:56;;;;;;;9.30;6.67;;;;;;;7.30;81.58;100938.80;652195;217;24856;-76
2021/03/17 09:11:52;;;;;;;11.67;6.20;;;;;;;7.40;81.50;100950.18;652827;217;27001;-75
2021/03/17 09:14:27;;;;;;;12.70;7.50;;;;;;;7.53;81.69;100952.27;650596;217;25080;-75
2021/03/17 09:17:04;;;;;;;13.73;7.40;;;;;;;7.56;82.63;100954.64;654059;217;24874;-75
2021/03/17 09:19:32;;;;;;;9.03;6.00;;;;;;;7.79;82.24;100956.92;656119;217;24871;-75
2021/03/17 09:21:59;;;;;;;11.17;6.60;;;;;;;8.20;80.32;100942.76;647880;217;24851;-75
2021/03/17 09:24:29;;;;;;;12.53;6.83;;;;;;;7.88;79.92;100935.55;648216;217;33516;-75
2021/03/17 09:27:01;;;;;;;11.10;7.00;;;;;;;8.17;79.42;100936.05;656227;217;24863;-75
2021/03/17 09:29:29;;;;;;;10.80;5.93;;;;;;;8.23;78.91;100935.58;655809;217;24830;-75
2021/03/17 09:31:57;;;;;;;11.50;5.80;;;;;;;8.13;78.96;100935.06;653402;217;24867;-75
2021/03/17 09:34:27;;;;;;;8.97;6.53;;;;;;;8.48;79.16;100933.81;653406;217;24875;-75
2021/03/17 09:37:01;;;;;;;9.73;6.50;;;;;;;8.92;76.52;100927.41;651155;217;32523;-75
2021/03/17 09:39:29;;;;;;;11.23;7.17;;;;;;;7.78;79.24;100929.38;652304;217;25873;-76
2021/03/17 09:41:57;;;;;;;10.50;6.37;;;;;;;7.66;80.83;100940.59;654593;217;27087;-75
2021/03/17 09:44:25;;;;;;;11.67;6.83;;;;;;;7.84;79.16;100931.98;648455;217;27012;-75
2021/03/17 09:46:53;;;;;;;13.80;8.10;;;;;;;7.72;79.59;100932.38;642848;217;32617;-75
2021/03/17 09:49:21;;;;;;;9.93;7.70;;;;;;;7.62;79.61;100943.88;650895;217;26055;-75
2021/03/17 09:51:49;;;;;;;12.27;8.43;;;;;;;8.03;80.95;100937.05;647156;216;42029;-75
2021/03/17 09:54:17;;;;;;;10.73;7.53;;;;;;;7.87;79.77;100935.17;654950;216;25890;-76
2021/03/17 09:56:45;;;;;;;12.30;7.20;;;;;;;7.49;79.23;100937.08;653595;217;24848;-75
2021/03/17 09:59:17;;;;;;;8.60;6.00;;;;;;;7.45;79.55;100928.67;647716;217;24832;-75
2021/03/17 10:01:49;;;;;;;8.70;6.27;;;;;;;7.59;81.82;100942.77;657302;217;28054;-74
2021/03/17 10:04:19;;;;;;;7.83;5.45;;;;;;;7.85;79.29;100940.11;651955;217;32521;-74
2021/03/17 10:06:47;;;;;;;10.13;5.35;;;;;;;7.52;78.79;100926.03;645467;217;32537;-74
2021/03/17 10:09:15;;;;;;;10.37;5.53;;;;;;;7.27;79.09;100920.91;656125;217;24811;-75
2021/03/17 10:11:43;;;;;;;9.63;5.50;;;;;;;7.71;79.82;100913.43;651189;217;24831;-75
2021/03/17 10:14:13;;;;;;;7.53;4.80;;;;;;;7.65;81.44;100929.41;654491;217;24823;-73
2021/03/17 10:16:41;;;;;;;6.35;4.50;;;;;;;7.72;79.08;100920.26;653534;217;32489;-78
2021/03/17 10:19:11;;;;;;;7.77;4.93;;;;;;;7.79;81.23;100926.31;651739;217;23724;-75
2021/03/17 10:21:39;;;;;;;5.33;4.30;;;;;;;8.22;80.77;100927.45;657012;217;31333;-75
2021/03/17 10:24:09;;;;;;;5.90;3.70;;;;;;;7.90;80.33;100932.85;650258;217;24824;-76
2021/03/17 10:26:37;;;;;;;6.00;4.27;;;;;;;7.91;82.15;100935.80;650677;217;24876;-76
2021/03/17 10:29:07;;;;;;;9.40;4.50;;;;;;;7.62;80.31;100928.34;648234;217;32460;-75
2021/03/17 10:31:35;;;;;;;4.20;3.17;;;;;;;7.11;81.83;100925.03;651381;217;23721;-75
2021/03/17 10:34:03;;;;;;;5.27;3.70;;;;;;;6.84;82.04;100930.31;653780;217;27027;-75
2021/03/17 10:36:38;;;;;;;4.27;3.60;;;;;;;7.22;83.24;100939.34;649902;217;24830;-75
2021/03/17 10:39:05;;;;;;;7.30;3.60;;;;;;;7.16;83.83;100941.05;655776;213;25021;-75
2021/03/17 10:41:39;;;;;;;5.57;3.50;;;;;;;7.28;82.03;100939.38;650302;217;32653;-75
2021/03/17 10:44:15;;;;;;;5.08;3.65;;;;;;;7.69;82.66;100941.66;652078;217;32506;-76
2021/03/17 10:46:53;;;;;;;6.25;3.87;;;;;;;7.13;86.20;100945.97;651621;217;32530;-74
2021/03/17 10:49:21;;;;;;;5.50;3.77;;;;;;;6.87;86.32;100966.77;658558;217;23988;-75
2021/03/17 10:51:52;;;;;;;4.63;3.80;;;;;;;6.83;87.54;100966.15;650662;217;32699;-75
2021/03/17 10:54:29;;;;;;;5.60;4.37;;;;;;;6.66;89.60;100965.16;648852;217;32519;-75
2021/03/17 10:56:56;;;;;;;8.23;4.73;;;;;;;6.40;92.80;100986.23;658238;217;23773;-75
2021/03/17 10:59:26;;;;;;;4.40;4.00;;;;;;;6.67;92.89;100968.92;659597;217;24963;-75
2021/03/17 11:02:14;;;;;;;5.50;4.37;;;;;;;7.06;90.88;100960.73;655174;217;28028;-75
2021/03/17 11:05:05;;;;;;;5.00;4.50;;;;;;;6.52;91.47;100950.09;658219;216;24829;-75
2021/03/17 11:07:54;;;;;;;6.97;5.27;;;;;;;6.73;93.00;100954.29;649511;217;32433;-75
2021/03/17 11:10:29;;;;;;;6.30;4.93;;;;;;;7.01;93.66;100959.73;654531;217;24832;-74
2021/03/17 11:12:57;;;;;;;8.70;5.07;;;;;;;6.63;93.21;100954.56;656844;217;24846;-75
2021/03/17 11:15:26;;;;;;;5.87;4.33;;;;;;;6.52;91.80;100950.09;658397;217;28021;-75
2021/03/17 11:17:55;;;;;;;5.43;4.40;;;;;;;6.08;92.86;100954.73;653914;217;24856;-75
2021/03/17 11:20:23;;;;;;;4.90;4.40;;;;;;;6.66;93.35;100954.81;658221;217;24815;-75
2021/03/17 11:22:51;;;;;;;5.97;4.40;;;;;;;6.96;91.16;100947.59;653788;217;24845;-75
2021/03/17 11:25:24;;;;;;;5.07;4.00;;;;;;;7.37;91.49;100937.46;654833;217;24831;-75
2021/03/17 11:27:52;;;;;;;5.33;4.20;;;;;;;7.70;90.51;100929.91;649534;217;24895;-74
2021/03/17 11:30:21;;;;;;;6.93;4.83;;;;;;;7.82;87.85;100915.73;656386;217;24870;-73
2021/03/17 11:32:48;;;;;;;6.57;4.47;;;;;;;8.35;86.89;100914.45;657771;217;24888;-76
2021/03/17 11:35:16;;;;;;;5.37;4.60;;;;;;;9.21;82.59;100897.91;650876;217;43169;-76
2021/03/17 11:37:44;;;;;;;5.35;4.85;;;;;;;9.50;79.11;100882.64;646996;217;32451;-75